Time;durP1;ratioP1;P1;durP2;ratioP2;P2;SDS_P1;SDS_P2;PMS_P1;PMS_P2;Temp;Humidity;BMP_temperature;BMP_pressure;BME280_temperature;BME280_humidity;BME280_pressure;Samples;Min_cycle;Max_cycle;Signal;HPM_P1;HPM_P2
2023/03/28 00:01:37;;;;;;;7.15;1.80;;;;;;;;;;5139563;27;20393;-79
2023/03/28 00:04:03;;;;;;;8.10;1.42;;;;;;;;;;5143021;27;20494;-79
2023/03/28 00:06:30;;;;;;;8.80;1.80;;;;;;;;;;5133989;27;20954;-79
2023/03/28 00:08:57;;;;;;;9.80;2.20;;;;;;;;;;5134285;27;20059;-79
2023/03/28 00:11:23;;;;;;;8.88;1.85;;;;;;;;;;5137457;27;20981;-79
2023/03/28 00:13:56;;;;;;;8.70;2.08;;;;;;;;;;5123787;27;20060;-79
2023/03/28 00:16:30;;;;;;;9.48;1.55;;;;;;;;;;5122858;27;20996;-79
2023/03/28 00:19:01;;;;;;;6.47;1.63;;;;;;;;;;5107217;27;20063;-80
2023/03/28 00:21:29;;;;;;;8.77;2.17;;;;;;;;;;5124840;27;20094;-80
2023/03/28 00:24:00;;;;;;;6.13;1.98;;;;;;;;;;5132628;27;20130;-80
2023/03/28 00:26:28;;;;;;;7.47;2.00;;;;;;;;;;5140215;27;21035;-80
2023/03/28 00:28:55;;;;;;;6.13;1.70;;;;;;;;;;5139169;27;20059;-80
2023/03/28 00:31:22;;;;;;;7.40;1.55;;;;;;;;;;5129213;27;21349;-79
2023/03/28 00:33:49;;;;;;;8.05;2.00;;;;;;;;;;5131477;27;20056;-80
2023/03/28 00:36:22;;;;;;;8.68;2.58;;;;;;;;;;5138268;27;20132;-79
2023/03/28 00:38:49;;;;;;;11.40;2.05;;;;;;;;;;5134039;27;20058;-80
2023/03/28 00:41:17;;;;;;;6.22;1.90;;;;;;;;;;5103863;27;20051;-80
2023/03/28 00:43:45;;;;;;;7.47;1.70;;;;;;;;;;5126785;27;20058;-79
2023/03/28 00:46:21;;;;;;;6.70;1.85;;;;;;;;;;5118752;27;20051;-80
2023/03/28 00:48:50;;;;;;;6.78;2.00;;;;;;;;;;5137035;27;20048;-80
2023/03/28 00:51:17;;;;;;;4.57;1.85;;;;;;;;;;5111869;27;20060;-80
2023/03/28 00:53:44;;;;;;;7.95;1.83;;;;;;;;;;5128729;27;20089;-80
2023/03/28 00:56:13;;;;;;;7.50;2.05;;;;;;;;;;5137708;27;20127;-79
2023/03/28 00:58:41;;;;;;;9.90;1.75;;;;;;;;;;5131770;27;20063;-80
2023/03/28 01:01:09;;;;;;;6.00;1.77;;;;;;;;;;5130234;27;20062;-80
2023/03/28 01:03:40;;;;;;;6.65;1.85;;;;;;;;;;5114019;27;20098;-80
2023/03/28 01:06:07;;;;;;;8.05;2.20;;;;;;;;;;5141667;27;20044;-80
2023/03/28 01:08:36;;;;;;;8.18;1.98;;;;;;;;;;5112508;27;20063;-80
2023/03/28 01:11:03;;;;;;;8.25;1.92;;;;;;;;;;5135574;27;20060;-79
2023/03/28 01:13:30;;;;;;;7.57;1.73;;;;;;;;;;5108539;27;20040;-80
2023/03/28 01:15:58;;;;;;;6.85;1.90;;;;;;;;;;5114634;27;20162;-79
2023/03/28 01:18:25;;;;;;;10.50;1.77;;;;;;;;;;5106042;27;20048;-79
2023/03/28 01:21:10;;;;;;;7.60;1.85;;;;;;;;;;5115968;27;20497;-79
2023/03/28 01:24:00;;;;;;;7.80;1.70;;;;;;;;;;5097560;27;20427;-79
2023/03/28 01:26:49;;;;;;;4.85;1.75;;;;;;;;;;5106530;27;20096;-79
2023/03/28 01:29:36;;;;;;;4.45;1.48;;;;;;;;;;5096710;27;20048;-79
2023/03/28 01:32:08;;;;;;;9.30;1.90;;;;;;;;;;5095944;27;20500;-78
2023/03/28 01:34:47;;;;;;;5.70;1.58;;;;;;;;;;5114536;27;20083;-79
2023/03/28 01:37:33;;;;;;;7.65;1.48;;;;;;;;;;5117961;27;20098;-78
2023/03/28 01:40:05;;;;;;;9.38;1.63;;;;;;;;;;5111443;27;20511;-78
2023/03/28 01:42:37;;;;;;;6.03;1.60;;;;;;;;;;5116054;27;20063;-80
2023/03/28 01:45:16;;;;;;;6.65;2.03;;;;;;;;;;5126481;27;20137;-81
2023/03/28 01:47:46;;;;;;;6.53;1.75;;;;;;;;;;5090935;27;20106;-81
2023/03/28 01:50:12;;;;;;;6.13;1.60;;;;;;;;;;5112976;27;20055;-80
2023/03/28 01:52:39;;;;;;;5.40;1.75;;;;;;;;;;5121295;27;20063;-80
2023/03/28 01:55:08;;;;;;;6.22;1.50;;;;;;;;;;5107298;27;20062;-81
2023/03/28 01:57:40;;;;;;;7.57;2.08;;;;;;;;;;5112423;27;20052;-81
2023/03/28 02:00:19;;;;;;;6.72;1.70;;;;;;;;;;5100690;27;20047;-80
2023/03/28 02:02:51;;;;;;;6.20;1.63;;;;;;;;;;5118448;27;20052;-80
2023/03/28 02:05:18;;;;;;;11.13;2.30;;;;;;;;;;5111816;27;20075;-80
2023/03/28 02:07:47;;;;;;;6.43;1.67;;;;;;;;;;5116965;27;20142;-81
2023/03/28 02:10:15;;;;;;;6.22;1.63;;;;;;;;;;5118449;27;20097;-82
2023/03/28 02:12:47;;;;;;;7.82;1.70;;;;;;;;;;5121334;27;20052;-79
2023/03/28 02:15:15;;;;;;;6.00;1.70;;;;;;;;;;5120914;27;20074;-80
2023/03/28 02:17:48;;;;;;;8.77;1.75;;;;;;;;;;5117355;27;20995;-81
2023/03/28 02:20:18;;;;;;;4.68;1.65;;;;;;;;;;5119520;27;20785;-80
2023/03/28 02:22:53;;;;;;;9.20;2.60;;;;;;;;;;5108244;27;20506;-80
2023/03/28 02:25:20;;;;;;;7.35;1.50;;;;;;;;;;5113579;27;20345;-81
2023/03/28 02:27:48;;;;;;;11.00;1.90;;;;;;;;;;5099756;27;20521;-81
2023/03/28 02:30:14;;;;;;;5.85;1.60;;;;;;;;;;5109234;27;20047;-81
2023/03/28 02:32:42;;;;;;;7.35;1.58;;;;;;;;;;5109678;27;20059;-80
2023/03/28 02:35:09;;;;;;;8.27;2.03;;;;;;;;;;5110454;27;20054;-78
2023/03/28 02:37:59;;;;;;;8.68;1.70;;;;;;;;;;5110174;27;20055;-78
2023/03/28 02:40:28;;;;;;;9.60;2.20;;;;;;;;;;5082352;27;20052;-78
2023/03/28 02:42:55;;;;;;;7.28;2.03;;;;;;;;;;5116817;27;20162;-79
2023/03/28 02:45:27;;;;;;;8.40;2.08;;;;;;;;;;5116135;27;20052;-78
2023/03/28 02:48:12;;;;;;;7.65;2.05;;;;;;;;;;5116467;27;20080;-79
2023/03/28 02:50:56;;;;;;;10.55;2.00;;;;;;;;;;5117556;27;20039;-78
2023/03/28 02:53:32;;;;;;;6.03;1.98;;;;;;;;;;5115477;27;20047;-78
2023/03/28 02:55:58;;;;;;;6.13;2.15;;;;;;;;;;5096979;27;20048;-78
2023/03/28 02:58:33;;;;;;;6.53;1.58;;;;;;;;;;5113913;27;20060;-79
2023/03/28 03:01:01;;;;;;;6.55;1.92;;;;;;;;;;5087231;27;20082;-80
2023/03/28 03:03:28;;;;;;;8.52;2.00;;;;;;;;;;5107764;27;20059;-81
2023/03/28 03:05:56;;;;;;;6.40;2.25;;;;;;;;;;5123890;27;20066;-80
2023/03/28 03:08:23;;;;;;;6.63;1.70;;;;;;;;;;5115877;27;20059;-80
2023/03/28 03:10:50;;;;;;;5.25;1.73;;;;;;;;;;5114290;27;21037;-81
2023/03/28 03:13:16;;;;;;;9.45;2.35;;;;;;;;;;5121854;27;20062;-78
2023/03/28 03:15:42;;;;;;;11.15;2.42;;;;;;;;;;5116764;27;20048;-80
2023/03/28 03:18:09;;;;;;;8.88;1.95;;;;;;;;;;5117564;27;20138;-78
2023/03/28 03:20:35;;;;;;;5.95;2.22;;;;;;;;;;5102122;27;20066;-78
2023/03/28 03:23:02;;;;;;;8.45;2.30;;;;;;;;;;5110115;27;20048;-78
2023/03/28 03:25:30;;;;;;;13.35;2.58;;;;;;;;;;5120860;27;20056;-78
2023/03/28 03:27:56;;;;;;;12.50;2.60;;;;;;;;;;5095837;28;20856;-78
2023/03/28 03:30:23;;;;;;;14.75;2.50;;;;;;;;;;5116175;27;21408;-77
2023/03/28 03:32:49;;;;;;;12.75;2.30;;;;;;;;;;5115153;27;20062;-78
2023/03/28 03:35:16;;;;;;;7.15;2.80;;;;;;;;;;5118783;27;20063;-80
2023/03/28 03:37:42;;;;;;;5.82;2.33;;;;;;;;;;5106341;27;20060;-79
2023/03/28 03:40:08;;;;;;;8.13;2.50;;;;;;;;;;5117688;27;20147;-80
2023/03/28 03:42:35;;;;;;;6.38;2.30;;;;;;;;;;5116181;27;20046;-78
2023/03/28 03:45:03;;;;;;;8.07;2.30;;;;;;;;;;5118481;27;20059;-77
2023/03/28 03:47:29;;;;;;;12.88;2.28;;;;;;;;;;5106036;27;20050;-78
2023/03/28 03:49:56;;;;;;;7.95;2.28;;;;;;;;;;5116490;27;20058;-78
2023/03/28 03:52:22;;;;;;;11.25;2.97;;;;;;;;;;5124869;27;20052;-78
2023/03/28 03:54:49;;;;;;;9.20;2.88;;;;;;;;;;5098117;27;20044;-77
2023/03/28 03:57:16;;;;;;;18.90;3.22;;;;;;;;;;5110684;27;20052;-78
2023/03/28 03:59:42;;;;;;;10.05;3.30;;;;;;;;;;5110296;27;20052;-78
2023/03/28 04:02:09;;;;;;;10.82;3.88;;;;;;;;;;5124580;27;20054;-80
2023/03/28 04:04:39;;;;;;;11.07;4.10;;;;;;;;;;5118800;27;20162;-78
2023/03/28 04:07:05;;;;;;;13.93;4.10;;;;;;;;;;5090507;28;20087;-77
2023/03/28 04:09:32;;;;;;;10.80;4.00;;;;;;;;;;5104430;27;20052;-78
2023/03/28 04:11:58;;;;;;;14.05;3.95;;;;;;;;;;5110115;27;20063;-77
2023/03/28 04:14:25;;;;;;;9.52;3.97;;;;;;;;;;5098474;27;20048;-77
2023/03/28 04:16:52;;;;;;;12.25;3.75;;;;;;;;;;5093231;28;20047;-77
2023/03/28 04:19:19;;;;;;;8.23;3.38;;;;;;;;;;5105487;28;20048;-78
2023/03/28 04:21:46;;;;;;;10.98;3.47;;;;;;;;;;5099159;28;20939;-78
2023/03/28 04:24:16;;;;;;;12.77;3.78;;;;;;;;;;5111491;27;20058;-78
2023/03/28 04:26:44;;;;;;;10.65;3.83;;;;;;;;;;5124935;27;20050;-78
2023/03/28 04:29:11;;;;;;;11.82;3.42;;;;;;;;;;5117197;27;20506;-77
2023/03/28 04:31:38;;;;;;;13.85;3.90;;;;;;;;;;5123661;27;20056;-77
2023/03/28 04:34:05;;;;;;;11.60;3.55;;;;;;;;;;5112612;27;20044;-77
2023/03/28 04:36:32;;;;;;;10.77;3.72;;;;;;;;;;5119453;27;20055;-78
2023/03/28 04:39:01;;;;;;;10.85;3.20;;;;;;;;;;5122688;27;20112;-78
2023/03/28 04:41:28;;;;;;;9.40;3.08;;;;;;;;;;5111815;27;20125;-77
2023/03/28 04:43:54;;;;;;;13.00;4.05;;;;;;;;;;5110409;27;22312;-78
2023/03/28 04:46:21;;;;;;;13.57;4.00;;;;;;;;;;5114890;27;20337;-78
2023/03/28 04:48:47;;;;;;;16.33;3.88;;;;;;;;;;5125420;27;20073;-77
2023/03/28 04:51:23;;;;;;;14.32;3.97;;;;;;;;;;5112362;27;20051;-77
2023/03/28 04:53:49;;;;;;;14.77;4.47;;;;;;;;;;5118640;27;20411;-77
2023/03/28 04:56:16;;;;;;;13.82;5.03;;;;;;;;;;5107541;27;20064;-77
2023/03/28 04:58:42;;;;;;;14.07;5.13;;;;;;;;;;5119280;27;20048;-78
2023/03/28 05:01:09;;;;;;;13.13;4.88;;;;;;;;;;5124450;27;20063;-80
2023/03/28 05:03:36;;;;;;;11.93;4.70;;;;;;;;;;5099417;27;20131;-78
2023/03/28 05:06:04;;;;;;;12.40;4.28;;;;;;;;;;5094540;27;20059;-77
2023/03/28 05:08:31;;;;;;;12.98;4.20;;;;;;;;;;5125461;27;20048;-77
2023/03/28 05:10:58;;;;;;;13.80;5.85;;;;;;;;;;5103089;27;20075;-78
2023/03/28 05:13:24;;;;;;;14.02;5.20;;;;;;;;;;5127050;27;20506;-78
2023/03/28 05:15:51;;;;;;;10.45;3.72;;;;;;;;;;5119563;27;20151;-77
2023/03/28 05:18:17;;;;;;;12.27;4.53;;;;;;;;;;5127575;27;20068;-77
2023/03/28 05:20:44;;;;;;;13.38;4.10;;;;;;;;;;5125150;27;20819;-78
2023/03/28 05:23:10;;;;;;;10.65;4.15;;;;;;;;;;5118450;27;20052;-77
2023/03/28 05:25:36;;;;;;;10.38;4.60;;;;;;;;;;5102107;27;20067;-77
2023/03/28 05:28:03;;;;;;;11.88;4.43;;;;;;;;;;5094498;27;20601;-77
2023/03/28 05:30:30;;;;;;;11.85;4.95;;;;;;;;;;5113591;27;20058;-77
2023/03/28 05:32:58;;;;;;;13.63;4.47;;;;;;;;;;5099797;27;20083;-77
2023/03/28 05:35:24;;;;;;;10.75;4.50;;;;;;;;;;5115216;27;20101;-79
2023/03/28 05:37:51;;;;;;;10.57;4.95;;;;;;;;;;5121941;27;20105;-78
2023/03/28 05:40:18;;;;;;;12.88;5.10;;;;;;;;;;5115764;27;20055;-80
2023/03/28 05:42:44;;;;;;;9.70;5.20;;;;;;;;;;5129465;27;20043;-78
2023/03/28 05:45:11;;;;;;;12.30;5.13;;;;;;;;;;5124810;27;20059;-78
2023/03/28 05:47:38;;;;;;;14.70;5.75;;;;;;;;;;5096098;28;20135;-78
2023/03/28 05:50:06;;;;;;;10.10;5.50;;;;;;;;;;5091414;27;20140;-79
2023/03/28 05:52:32;;;;;;;13.50;5.93;;;;;;;;;;5106214;28;20064;-80
2023/03/28 05:54:58;;;;;;;16.75;5.55;;;;;;;;;;5117338;27;20076;-79
2023/03/28 05:57:25;;;;;;;16.02;5.65;;;;;;;;;;5124932;27;20139;-79
2023/03/28 05:59:52;;;;;;;14.20;5.90;;;;;;;;;;5094978;27;20205;-79
2023/03/28 06:02:19;;;;;;;14.32;6.07;;;;;;;;;;5103381;27;20135;-79
2023/03/28 06:04:47;;;;;;;11.23;5.78;;;;;;;;;;5116663;27;20052;-78
2023/03/28 06:07:14;;;;;;;13.43;5.97;;;;;;;;;;5112868;27;20036;-79
2023/03/28 06:09:41;;;;;;;15.05;6.63;;;;;;;;;;5089807;27;20056;-79
2023/03/28 06:12:08;;;;;;;15.38;6.97;;;;;;;;;;5103796;27;20320;-78
2023/03/28 06:14:34;;;;;;;12.52;6.40;;;;;;;;;;5115017;27;20126;-79
2023/03/28 06:17:18;;;;;;;14.88;7.00;;;;;;;;;;5111617;27;20059;-79
2023/03/28 06:19:45;;;;;;;12.02;6.72;;;;;;;;;;5119470;27;20043;-80
2023/03/28 06:22:11;;;;;;;13.85;6.40;;;;;;;;;;5124570;27;20056;-80
2023/03/28 06:24:37;;;;;;;16.90;6.60;;;;;;;;;;5121884;27;20138;-79
2023/03/28 06:27:04;;;;;;;12.93;6.63;;;;;;;;;;5123643;27;20548;-80
2023/03/28 06:29:31;;;;;;;14.48;6.75;;;;;;;;;;5116779;27;20091;-80
2023/03/28 06:31:57;;;;;;;13.30;6.18;;;;;;;;;;5115146;27;20063;-80
2023/03/28 06:34:24;;;;;;;18.42;6.75;;;;;;;;;;5121701;27;20534;-79
2023/03/28 06:36:50;;;;;;;15.50;6.38;;;;;;;;;;5118467;27;20083;-81
2023/03/28 06:39:16;;;;;;;16.65;5.93;;;;;;;;;;5097005;28;20055;-80
2023/03/28 06:41:43;;;;;;;15.90;6.30;;;;;;;;;;5108426;27;20950;-80
2023/03/28 06:44:10;;;;;;;16.77;6.85;;;;;;;;;;5096900;27;20059;-77
2023/03/28 06:46:36;;;;;;;12.38;6.07;;;;;;;;;;5116612;27;20107;-79
2023/03/28 06:49:02;;;;;;;12.73;5.38;;;;;;;;;;5111962;27;20056;-81
2023/03/28 06:51:29;;;;;;;11.90;5.28;;;;;;;;;;5116393;27;20051;-81
2023/03/28 06:53:56;;;;;;;11.02;5.00;;;;;;;;;;5102908;27;20052;-80
2023/03/28 06:56:22;;;;;;;14.02;5.32;;;;;;;;;;5095712;27;20062;-80
2023/03/28 06:58:48;;;;;;;13.50;5.50;;;;;;;;;;5121200;27;20897;-80
2023/03/28 07:01:15;;;;;;;10.85;4.55;;;;;;;;;;5101994;27;20102;-80
2023/03/28 07:03:42;;;;;;;15.50;5.40;;;;;;;;;;5107009;27;20557;-81
2023/03/28 07:06:09;;;;;;;13.07;5.00;;;;;;;;;;5114365;27;20127;-81
2023/03/28 07:08:36;;;;;;;14.65;4.47;;;;;;;;;;5103083;27;20080;-81
2023/03/28 07:11:03;;;;;;;14.68;5.05;;;;;;;;;;5100577;27;20079;-81
2023/03/28 07:13:30;;;;;;;14.75;5.05;;;;;;;;;;5121936;27;20201;-80
2023/03/28 07:16:04;;;;;;;10.95;4.32;;;;;;;;;;5118898;27;20059;-80
2023/03/28 07:18:30;;;;;;;12.98;4.63;;;;;;;;;;5101790;27;20086;-80
2023/03/28 07:20:57;;;;;;;11.25;4.50;;;;;;;;;;5125806;27;20075;-80
2023/03/28 07:23:29;;;;;;;13.27;4.18;;;;;;;;;;5125872;27;20059;-80
2023/03/28 07:25:56;;;;;;;15.50;4.35;;;;;;;;;;5120265;27;20047;-79
2023/03/28 07:28:23;;;;;;;12.75;4.72;;;;;;;;;;5118782;27;20048;-79
2023/03/28 07:30:51;;;;;;;12.35;5.15;;;;;;;;;;5107774;27;20052;-79
2023/03/28 07:33:18;;;;;;;17.98;5.47;;;;;;;;;;5112790;27;20059;-79
2023/03/28 07:35:56;;;;;;;14.95;5.53;;;;;;;;;;5110037;27;20083;-79
2023/03/28 07:38:23;;;;;;;9.82;5.00;;;;;;;;;;5115664;27;20765;-81
2023/03/28 07:40:49;;;;;;;14.07;4.93;;;;;;;;;;5109930;27;20051;-81
2023/03/28 07:43:15;;;;;;;9.27;5.18;;;;;;;;;;5107806;27;20090;-81
2023/03/28 07:45:42;;;;;;;12.27;4.82;;;;;;;;;;5125628;27;20063;-80
2023/03/28 07:48:08;;;;;;;15.68;4.60;;;;;;;;;;5116665;27;20047;-80
2023/03/28 07:50:35;;;;;;;11.23;4.63;;;;;;;;;;5111438;27;20055;-81
2023/03/28 07:53:01;;;;;;;13.20;4.00;;;;;;;;;;5115702;27;20097;-81
2023/03/28 07:55:28;;;;;;;9.50;4.28;;;;;;;;;;5125421;27;20062;-81
2023/03/28 07:57:55;;;;;;;12.45;4.93;;;;;;;;;;5120205;27;20117;-80
2023/03/28 08:00:22;;;;;;;13.18;4.50;;;;;;;;;;5125778;27;20043;-81
2023/03/28 08:02:50;;;;;;;9.65;4.07;;;;;;;;;;5120129;27;20055;-80
2023/03/28 08:05:16;;;;;;;13.93;5.30;;;;;;;;;;5117517;27;20159;-80
2023/03/28 08:07:46;;;;;;;12.52;4.50;;;;;;;;;;5108775;27;20134;-81
2023/03/28 08:10:13;;;;;;;13.00;4.45;;;;;;;;;;5104700;27;20138;-81
2023/03/28 08:12:39;;;;;;;10.93;4.50;;;;;;;;;;5119634;27;20043;-81
2023/03/28 08:15:06;;;;;;;10.45;4.00;;;;;;;;;;5095981;27;20052;-81
2023/03/28 08:17:33;;;;;;;19.15;4.53;;;;;;;;;;5121334;27;20515;-81
2023/03/28 08:19:59;;;;;;;12.35;3.90;;;;;;;;;;5109762;27;20044;-81
2023/03/28 08:22:26;;;;;;;11.23;3.92;;;;;;;;;;5128083;27;20127;-80
2023/03/28 08:24:52;;;;;;;16.13;4.15;;;;;;;;;;5099143;27;20109;-81
2023/03/28 08:27:19;;;;;;;10.93;4.28;;;;;;;;;;5115354;27;20179;-81
2023/03/28 08:29:46;;;;;;;11.77;4.47;;;;;;;;;;5101245;27;20063;-81
2023/03/28 08:32:12;;;;;;;12.38;3.90;;;;;;;;;;5097659;28;20556;-81
2023/03/28 08:34:39;;;;;;;9.32;3.58;;;;;;;;;;5108641;27;20083;-81
2023/03/28 08:37:05;;;;;;;11.15;3.88;;;;;;;;;;5121684;27;21065;-81
2023/03/28 08:39:33;;;;;;;11.20;4.07;;;;;;;;;;5103193;28;20936;-82
2023/03/28 08:42:24;;;;;;;10.70;3.63;;;;;;;;;;5097417;27;20134;-81
2023/03/28 08:44:54;;;;;;;8.88;4.13;;;;;;;;;;5126004;27;20059;-81
2023/03/28 08:47:23;;;;;;;9.93;3.83;;;;;;;;;;5130304;27;20059;-81
2023/03/28 08:50:13;;;;;;;8.43;3.00;;;;;;;;;;5119184;27;20055;-81
2023/03/28 08:52:40;;;;;;;11.38;3.28;;;;;;;;;;5128179;27;20062;-81
2023/03/28 08:55:27;;;;;;;10.30;3.40;;;;;;;;;;5118407;27;20105;-81
2023/03/28 08:57:55;;;;;;;10.63;3.47;;;;;;;;;;5126041;27;20051;-82
2023/03/28 09:00:23;;;;;;;8.15;3.50;;;;;;;;;;5111232;27;20052;-81
2023/03/28 09:02:49;;;;;;;9.32;3.38;;;;;;;;;;5121476;27;20055;-81
2023/03/28 09:05:35;;;;;;;8.95;3.38;;;;;;;;;;5122856;27;20064;-81
2023/03/28 09:08:08;;;;;;;8.95;3.65;;;;;;;;;;5102513;27;20469;-82
2023/03/28 09:10:37;;;;;;;8.88;3.35;;;;;;;;;;5116762;27;20057;-82
2023/03/28 09:13:10;;;;;;;9.07;3.90;;;;;;;;;;5110750;27;20551;-81
2023/03/28 09:15:55;;;;;;;5.05;2.20;;;;;;;;;;5109812;28;20530;-81
2023/03/28 09:18:35;;;;;;;5.55;1.90;;;;;;;;;;5120658;27;20141;-81
2023/03/28 09:21:08;;;;;;;11.35;2.42;;;;;;;;;;5112562;27;20063;-81
2023/03/28 09:23:44;;;;;;;11.40;2.08;;;;;;;;;;5096120;27;20052;-81
2023/03/28 09:26:16;;;;;;;9.13;2.20;;;;;;;;;;5129676;27;20150;-81
2023/03/28 09:28:42;;;;;;;11.75;2.10;;;;;;;;;;5112004;27;20056;-81
2023/03/28 09:31:10;;;;;;;7.82;1.73;;;;;;;;;;5129548;27;20522;-80
2023/03/28 09:33:39;;;;;;;8.40;1.88;;;;;;;;;;5124191;27;20040;-81
2023/03/28 09:36:14;;;;;;;8.20;2.25;;;;;;;;;;5099964;27;20091;-81
2023/03/28 09:38:51;;;;;;;14.73;3.03;;;;;;;;;;5096471;28;20057;-81
2023/03/28 09:41:26;;;;;;;8.88;2.22;;;;;;;;;;5091894;28;20131;-81
2023/03/28 09:43:54;;;;;;;8.88;2.20;;;;;;;;;;5089505;28;20067;-80
2023/03/28 09:46:38;;;;;;;7.22;2.30;;;;;;;;;;5123646;27;20580;-81
2023/03/28 09:49:04;;;;;;;;;;;;;;;;;;5120674;27;20052;-81
2023/03/28 09:51:31;;;;;;;5.95;2.30;;;;;;;;;;5111488;27;40986;-81
2023/03/28 09:53:57;;;;;;;11.23;2.92;;;;;;;;;;5121493;27;20056;-80
2023/03/28 09:56:30;;;;;;;6.43;2.50;;;;;;;;;;5120263;27;20532;-80
2023/03/28 09:58:58;;;;;;;7.55;2.28;;;;;;;;;;5121621;27;20090;-80
2023/03/28 10:01:30;;;;;;;6.15;2.10;;;;;;;;;;5119168;27;20059;-80
2023/03/28 10:03:57;;;;;;;7.65;2.20;;;;;;;;;;5128537;27;20075;-80
2023/03/28 10:06:26;;;;;;;6.28;2.00;;;;;;;;;;5120741;27;20140;-81
2023/03/28 10:09:07;;;;;;;9.90;2.60;;;;;;;;;;5123674;27;20051;-81
2023/03/28 10:11:33;;;;;;;;;;;;;;;;;;5119366;27;20054;-79
2023/03/28 10:13:59;;;;;;;7.57;2.10;;;;;;;;;;5118178;27;47014;-80
2023/03/28 10:16:28;;;;;;;9.20;2.60;;;;;;;;;;5100265;27;20043;-80
2023/03/28 10:18:55;;;;;;;6.85;2.17;;;;;;;;;;5108641;27;20443;-79
2023/03/28 10:21:25;;;;;;;5.72;2.17;;;;;;;;;;5122733;27;20051;-80
2023/03/28 10:23:57;;;;;;;5.55;1.55;;;;;;;;;;5120285;27;20142;-80
2023/03/28 10:26:25;;;;;;;5.78;1.73;;;;;;;;;;5113875;27;20129;-80
2023/03/28 10:28:53;;;;;;;6.03;2.08;;;;;;;;;;5115424;27;20062;-80
2023/03/28 10:31:30;;;;;;;7.50;1.83;;;;;;;;;;5116928;27;20923;-80
2023/03/28 10:33:58;;;;;;;7.90;2.00;;;;;;;;;;5107259;27;20052;-79
2023/03/28 10:36:31;;;;;;;5.85;2.17;;;;;;;;;;5122070;27;20191;-80
2023/03/28 10:38:58;;;;;;;7.30;1.70;;;;;;;;;;5115497;27;20058;-80
2023/03/28 10:41:26;;;;;;;5.78;1.67;;;;;;;;;;5115550;27;20056;-80
2023/03/28 10:43:52;;;;;;;4.38;1.50;;;;;;;;;;5114108;27;20044;-79
2023/03/28 10:46:20;;;;;;;5.88;1.40;;;;;;;;;;5123880;27;20841;-80
2023/03/28 10:49:11;;;;;;;11.45;1.50;;;;;;;;;;5115446;27;20139;-80
2023/03/28 10:51:39;;;;;;;6.82;1.48;;;;;;;;;;5099130;27;20055;-79
2023/03/28 10:54:05;;;;;;;8.38;1.27;;;;;;;;;;5112001;27;20048;-79
2023/03/28 10:56:40;;;;;;;5.80;1.20;;;;;;;;;;5113315;27;20934;-80
2023/03/28 10:59:13;;;;;;;4.97;1.38;;;;;;;;;;5102763;27;20078;-80
2023/03/28 11:01:39;;;;;;;5.72;1.35;;;;;;;;;;5098367;27;20532;-79
2023/03/28 11:04:18;;;;;;;6.20;1.27;;;;;;;;;;5116679;27;20052;-80
2023/03/28 11:06:50;;;;;;;4.75;1.15;;;;;;;;;;5128215;27;20120;-79
2023/03/28 11:09:35;;;;;;;6.72;1.25;;;;;;;;;;5096728;27;20054;-80
2023/03/28 11:12:10;;;;;;;5.75;1.40;;;;;;;;;;5109354;27;20631;-80
2023/03/28 11:14:53;;;;;;;;;;;;;;;;;;5125754;27;20058;-80
2023/03/28 11:17:43;;;;;;;7.75;1.52;;;;;;;;;;5108646;27;45944;-80
2023/03/28 11:20:40;;;;;;;6.88;1.73;;;;;;;;;;5127439;27;20051;-80
2023/03/28 11:23:28;;;;;;;8.63;1.90;;;;;;;;;;5126937;27;20148;-80
2023/03/28 11:26:22;;;;;;;8.25;2.05;;;;;;;;;;5109201;27;20056;-80
2023/03/28 11:28:53;;;;;;;6.15;1.63;;;;;;;;;;5128446;27;20062;-80
2023/03/28 11:31:32;;;;;;;6.88;1.85;;;;;;;;;;5127922;27;20132;-80
2023/03/28 11:34:17;;;;;;;8.10;1.90;;;;;;;;;;5097133;27;20521;-80
2023/03/28 11:36:55;;;;;;;5.57;1.75;;;;;;;;;;5108700;27;20052;-80
2023/03/28 11:39:34;;;;;;;10.02;2.15;;;;;;;;;;5089557;28;20510;-80
2023/03/28 11:42:17;;;;;;;7.43;2.10;;;;;;;;;;5100989;27;20164;-80
2023/03/28 11:45:05;;;;;;;8.60;1.73;;;;;;;;;;5087310;28;20063;-80
2023/03/28 11:47:43;;;;;;;8.20;2.25;;;;;;;;;;5107578;28;20056;-80
2023/03/28 11:50:28;;;;;;;7.80;2.13;;;;;;;;;;5099544;27;20052;-80
2023/03/28 11:53:12;;;;;;;6.57;2.10;;;;;;;;;;5114357;27;20052;-80
2023/03/28 11:55:48;;;;;;;7.47;2.20;;;;;;;;;;5107925;27;20051;-79
2023/03/28 11:58:24;;;;;;;5.68;1.98;;;;;;;;;;5126703;27;20056;-80
2023/03/28 12:01:16;;;;;;;6.38;2.00;;;;;;;;;;5117746;27;20052;-80
2023/03/28 12:03:44;;;;;;;6.45;2.10;;;;;;;;;;5092947;28;20044;-79
2023/03/28 12:06:33;;;;;;;6.38;1.92;;;;;;;;;;5105121;27;20063;-79
2023/03/28 12:09:43;;;;;;;7.32;1.65;;;;;;;;;;5117839;27;20074;-80
2023/03/28 12:12:12;;;;;;;;;;;;;;;;;;5107781;27;20056;-79
2023/03/28 12:15:11;;;;;;;3.65;1.45;;;;;;;;;;5117182;27;46984;-79
2023/03/28 12:17:46;;;;;;;8.93;1.50;;;;;;;;;;5097485;28;20059;-80
2023/03/28 12:20:34;;;;;;;7.10;1.65;;;;;;;;;;5108965;27;20063;-80
2023/03/28 12:23:11;;;;;;;8.23;1.90;;;;;;;;;;5124502;27;20048;-80
2023/03/28 12:25:39;;;;;;;4.43;1.67;;;;;;;;;;5116966;27;20056;-79
2023/03/28 12:28:25;;;;;;;6.90;1.80;;;;;;;;;;5105649;27;20084;-80
2023/03/28 12:30:53;;;;;;;4.72;1.88;;;;;;;;;;5116165;27;20286;-79
2023/03/28 12:34:03;;;;;;;4.85;1.40;;;;;;;;;;5103021;27;20063;-79
2023/03/28 12:36:54;;;;;;;5.90;1.52;;;;;;;;;;5112067;27;20055;-79
2023/03/28 12:39:40;;;;;;;7.82;1.80;;;;;;;;;;5119335;27;20167;-79
2023/03/28 12:42:15;;;;;;;12.55;1.90;;;;;;;;;;5111677;27;20072;-79
2023/03/28 12:45:03;;;;;;;8.25;1.40;;;;;;;;;;5100489;28;20052;-79
2023/03/28 12:47:41;;;;;;;7.85;1.60;;;;;;;;;;5118642;27;20056;-78
2023/03/28 12:50:25;;;;;;;5.82;2.05;;;;;;;;;;5098076;27;20056;-79
2023/03/28 12:52:56;;;;;;;7.13;1.92;;;;;;;;;;5092478;28;20052;-78
2023/03/28 12:55:30;;;;;;;5.60;1.52;;;;;;;;;;5098871;27;20062;-78
2023/03/28 12:58:21;;;;;;;5.05;1.70;;;;;;;;;;5120556;27;20050;-78
2023/03/28 13:01:05;;;;;;;7.32;1.85;;;;;;;;;;5112715;27;20059;-78
2023/03/28 13:03:49;;;;;;;7.57;1.88;;;;;;;;;;5104956;27;20044;-78
2023/03/28 13:06:41;;;;;;;7.65;2.20;;;;;;;;;;5093381;27;20055;-78
2023/03/28 13:09:34;;;;;;;6.82;1.90;;;;;;;;;;5124122;27;20062;-78
2023/03/28 13:12:27;;;;;;;9.80;2.22;;;;;;;;;;5126056;27;20932;-78
2023/03/28 13:14:59;;;;;;;7.20;1.95;;;;;;;;;;5101832;27;20052;-78
2023/03/28 13:17:37;;;;;;;7.22;2.00;;;;;;;;;;5096537;27;20612;-78
2023/03/28 13:20:20;;;;;;;7.13;1.92;;;;;;;;;;5114428;27;20546;-78
2023/03/28 13:23:05;;;;;;;6.13;2.05;;;;;;;;;;5113096;27;20115;-78
2023/03/28 13:25:41;;;;;;;8.57;2.10;;;;;;;;;;5100572;27;20125;-78
2023/03/28 13:28:15;;;;;;;6.45;2.10;;;;;;;;;;5118527;27;20055;-78
2023/03/28 13:30:44;;;;;;;12.13;2.47;;;;;;;;;;5099360;27;20056;-78
2023/03/28 13:33:20;;;;;;;7.88;1.92;;;;;;;;;;5101065;28;20063;-78
2023/03/28 13:35:56;;;;;;;11.25;2.53;;;;;;;;;;5113456;27;20055;-78
2023/03/28 13:38:32;;;;;;;9.45;2.70;;;;;;;;;;5115282;27;20452;-78
2023/03/28 13:41:16;;;;;;;6.13;2.30;;;;;;;;;;5117883;27;20059;-78
2023/03/28 13:43:53;;;;;;;6.15;2.47;;;;;;;;;;5106233;27;20048;-78
2023/03/28 13:46:35;;;;;;;10.35;2.58;;;;;;;;;;5123477;27;20159;-78
2023/03/28 13:49:23;;;;;;;12.02;2.60;;;;;;;;;;5119266;27;20052;-78
2023/03/28 13:52:05;;;;;;;8.23;2.40;;;;;;;;;;5102156;27;20102;-78
2023/03/28 13:54:38;;;;;;;10.68;2.28;;;;;;;;;;5103147;27;20049;-78
2023/03/28 13:57:17;;;;;;;6.40;2.20;;;;;;;;;;5101167;27;20040;-78
2023/03/28 13:59:52;;;;;;;5.15;1.88;;;;;;;;;;5106413;27;20056;-78
2023/03/28 14:03:01;;;;;;;8.07;2.03;;;;;;;;;;5097171;27;20102;-78
2023/03/28 14:05:38;;;;;;;8.30;2.60;;;;;;;;;;5104942;27;20044;-78
2023/03/28 14:08:15;;;;;;;10.00;2.20;;;;;;;;;;5117561;27;20055;-79
2023/03/28 14:10:55;;;;;;;8.20;2.15;;;;;;;;;;5099612;27;20090;-78
2023/03/28 14:13:26;;;;;;;7.07;2.05;;;;;;;;;;5120737;27;20056;-79
2023/03/28 14:15:57;;;;;;;6.28;2.15;;;;;;;;;;5116376;27;20079;-79
2023/03/28 14:18:34;;;;;;;8.55;2.03;;;;;;;;;;5103986;28;20101;-79
2023/03/28 14:21:06;;;;;;;6.38;2.13;;;;;;;;;;5102552;27;20066;-79
2023/03/28 14:23:48;;;;;;;9.27;2.37;;;;;;;;;;5115096;27;20102;-78
2023/03/28 14:26:27;;;;;;;9.07;2.55;;;;;;;;;;5102089;27;20048;-79
2023/03/28 14:29:00;;;;;;;4.55;1.80;;;;;;;;;;5119928;27;20051;-78
2023/03/28 14:31:30;;;;;;;6.95;2.13;;;;;;;;;;5114826;27;20056;-78
2023/03/28 14:34:22;;;;;;;10.50;3.35;;;;;;;;;;5116028;27;20093;-78
2023/03/28 14:37:05;;;;;;;9.55;3.20;;;;;;;;;;5087557;27;20062;-79
2023/03/28 14:39:36;;;;;;;10.68;3.20;;;;;;;;;;5097514;27;20539;-78
2023/03/28 14:42:07;;;;;;;8.35;2.63;;;;;;;;;;5113634;27;20055;-78
2023/03/28 14:44:40;;;;;;;8.45;2.50;;;;;;;;;;5107739;27;20571;-79
2023/03/28 14:47:28;;;;;;;8.88;2.03;;;;;;;;;;5109300;27;20415;-78
2023/03/28 14:50:00;;;;;;;6.45;2.55;;;;;;;;;;5127363;27;20060;-78
2023/03/28 14:52:34;;;;;;;7.85;2.05;;;;;;;;;;5117761;27;20058;-79
2023/03/28 14:55:17;;;;;;;9.32;3.00;;;;;;;;;;5109246;27;20064;-78
2023/03/28 14:57:52;;;;;;;6.97;2.35;;;;;;;;;;5110238;27;20051;-78
2023/03/28 15:00:22;;;;;;;6.30;2.00;;;;;;;;;;5106121;27;21476;-78
2023/03/28 15:03:02;;;;;;;7.70;2.38;;;;;;;;;;5119270;27;20047;-78
2023/03/28 15:05:34;;;;;;;9.27;2.50;;;;;;;;;;5098527;27;20051;-79
2023/03/28 15:08:24;;;;;;;9.10;2.42;;;;;;;;;;5095090;28;20044;-78